Temp: 3.1°C   Baro: 1029.4mb
  Wind: 4.9mph   Dir: E (81°)
  Rain: 0.0mm (0.0mm/hr)
  Solar: 0W/m2  Hum: 83%
 
Bath Spa Weather Station Historical Data
Daily Summary for February 23, 2021 Units:  Both    English   Metric
Daily Weekly Monthly Yearly Custom
  High: Low: Average:
Temperature: 56.3 °F /  13.5 °C 42.1 °F /  5.6 °C 50.8 °F /  10.4 °C
Dew Point: 49.8 °F /  9.9 °C 40.3 °F /  4.6 °C 45.8 °F /  7.7 °C
Humidity: 91% 71.8% 81%
Wind Speed: 23mph /  37km/h - 9.1mph /  14.6km/h
Wind Gust: 45mph /  72.4km/h - -
Wind- - SSW
Pressure: 30.15 in /  1020.9 hPa 30.09 in /  1018.8 hPa -
Precipitation: 0.01 in /  0.25 mm    
Historical Graphs
 
 
Tabular Data for February 23, 2021
Time Temperature Dew Point Pressure Wind Wind Speed Wind Gust Humidity Rainfall Rate (Hourly) solar
00:04 42.3 °F /  5.7 °C 40.6 °F /  4.8 °C 30.14in /  1020.5hPa WNW 3.3mph /  5.3km/h 5mph /  8km/h 91% 0.00in /  0mm 0 W/m2
00:09 42.3 °F /  5.7 °C 40.6 °F /  4.8 °C 30.14in /  1020.5hPa WNW 2.9mph /  4.7km/h 6mph /  9.7km/h 91% 0.00in /  0mm 0 W/m2
00:14 42.3 °F /  5.7 °C 40.5 °F /  4.7 °C 30.15in /  1020.9hPa WNW 2.8mph /  4.5km/h 6mph /  9.7km/h 90.4% 0.00in /  0mm 0 W/m2
00:19 42.4 °F /  5.8 °C 40.6 °F /  4.8 °C 30.15in /  1020.9hPa WNW 2.9mph /  4.7km/h 6mph /  9.7km/h 90% 0.00in /  0mm 0 W/m2
00:24 42.4 °F /  5.8 °C 40.6 °F /  4.8 °C 30.15in /  1020.9hPa WNW 1.8mph /  2.9km/h 4mph /  6.4km/h 90% 0.00in /  0mm 0 W/m2
00:29 42.3 °F /  5.7 °C 40.5 °F /  4.7 °C 30.14in /  1020.5hPa WNW 1.7mph /  2.7km/h 5mph /  8km/h 90% 0.00in /  0mm 0 W/m2
00:34 42.3 °F /  5.7 °C 40.5 °F /  4.7 °C 30.15in /  1020.9hPa WNW 2.1mph /  3.4km/h 6mph /  9.7km/h 90% 0.00in /  0mm 0 W/m2
00:39 42.3 °F /  5.7 °C 40.5 °F /  4.7 °C 30.15in /  1020.9hPa Calm   3mph /  4.8km/h 90% 0.00in /  0mm 0 W/m2
00:44 42.3 °F /  5.7 °C 40.5 °F /  4.7 °C 30.15in /  1020.9hPa WNW 1.2mph /  1.9km/h 4mph /  6.4km/h 90% 0.00in /  0mm 0 W/m2
00:49 42.3 °F /  5.7 °C 40.5 °F /  4.7 °C 30.15in /  1020.9hPa WNW 1.2mph /  1.9km/h 4mph /  6.4km/h 90% 0.00in /  0mm 0 W/m2
00:54 42.1 °F /  5.6 °C 40.3 °F /  4.6 °C 30.15in /  1020.9hPa WNW 0.2mph /  0.3km/h 3mph /  4.8km/h 90% 0.00in /  0mm 0 W/m2
00:59 42.1 °F /  5.6 °C 40.3 °F /  4.6 °C 30.14in /  1020.5hPa Calm   1mph /  1.6km/h 90% 0.00in /  0mm 0 W/m2
01:04 42.1 °F /  5.6 °C 40.3 °F /  4.6 °C 30.14in /  1020.5hPa WNW 1.6mph /  2.6km/h 4mph /  6.4km/h 90% 0.00in /  0mm 0 W/m2
01:09 42.2 °F /  5.7 °C 40.4 °F /  4.7 °C 30.14in /  1020.5hPa WNW 2.9mph /  4.7km/h 6mph /  9.7km/h 90% 0.00in /  0mm 0 W/m2
01:14 42.6 °F /  5.9 °C 40.8 °F /  4.9 °C 30.14in /  1020.5hPa South 3.9mph /  6.3km/h 10mph /  16.1km/h 90% 0.00in /  0mm 0 W/m2
01:24 43.5 °F /  6.4 °C 41.5 °F /  5.3 °C 30.14in /  1020.5hPa South 5.2mph /  8.4km/h 10mph /  16.1km/h 89.6% 0.00in /  0mm 0 W/m2
01:29 43.8 °F /  6.6 °C 41.6 °F /  5.3 °C 30.14in /  1020.5hPa South 4.4mph /  7.1km/h 10mph /  16.1km/h 89% 0.00in /  0mm 0 W/m2
01:34 44 °F /  6.7 °C 41.7 °F /  5.4 °C 30.14in /  1020.5hPa South 5.7mph /  9.2km/h 8mph /  12.9km/h 88.8% 0.00in /  0mm 0 W/m2
01:39 44.3 °F /  6.8 °C 41.9 °F /  5.5 °C 30.14in /  1020.5hPa South 5.6mph /  9km/h 12mph /  19.3km/h 88.2% 0.00in /  0mm 0 W/m2
01:44 44.4 °F /  6.9 °C 41.9 °F /  5.5 °C 30.14in /  1020.5hPa South 4.6mph /  7.4km/h 7mph /  11.3km/h 88% 0.00in /  0mm 0 W/m2
01:49 44.3 °F /  6.8 °C 41.8 °F /  5.4 °C 30.14in /  1020.5hPa South 3.5mph /  5.6km/h 8mph /  12.9km/h 88% 0.00in /  0mm 0 W/m2
01:54 44.2 °F /  6.8 °C 41.6 °F /  5.3 °C 30.14in /  1020.5hPa South 3.8mph /  6.1km/h 6mph /  9.7km/h 88% 0.00in /  0mm 0 W/m2
01:59 44.1 °F /  6.7 °C 41.5 °F /  5.3 °C 30.14in /  1020.5hPa South 3mph /  4.8km/h 7mph /  11.3km/h 88% 0.00in /  0mm 0 W/m2
02:04 44.1 °F /  6.7 °C 41.5 °F /  5.3 °C 30.15in /  1020.9hPa South 3.1mph /  5km/h 8mph /  12.9km/h 88% 0.00in /  0mm 0 W/m2
02:09 44 °F /  6.7 °C 41.5 °F /  5.3 °C 30.14in /  1020.5hPa South 1mph /  1.6km/h 6mph /  9.7km/h 88% 0.00in /  0mm 0 W/m2
02:14 43.9 °F /  6.6 °C 41.4 °F /  5.2 °C 30.14in /  1020.5hPa South 2.5mph /  4km/h 6mph /  9.7km/h 88% 0.00in /  0mm 0 W/m2
02:19 43.9 °F /  6.6 °C 41.4 °F /  5.2 °C 30.14in /  1020.5hPa South 2.5mph /  4km/h 6mph /  9.7km/h 88% 0.00in /  0mm 0 W/m2
02:24 43.9 °F /  6.6 °C 41.4 °F /  5.2 °C 30.14in /  1020.5hPa SSE 4mph /  6.4km/h 7mph /  11.3km/h 88% 0.00in /  0mm 0 W/m2
02:29 44 °F /  6.7 °C 41.5 °F /  5.3 °C 30.14in /  1020.5hPa SSE 3.8mph /  6.1km/h 7mph /  11.3km/h 88% 0.00in /  0mm 0 W/m2
02:34 44.1 °F /  6.7 °C 41.5 °F /  5.3 °C 30.14in /  1020.5hPa SSE 2.8mph /  4.5km/h 6mph /  9.7km/h 88% 0.00in /  0mm 0 W/m2
02:39 44.2 °F /  6.8 °C 41.7 °F /  5.4 °C 30.14in /  1020.5hPa South 4.8mph /  7.7km/h 9mph /  14.5km/h 88% 0.00in /  0mm 0 W/m2
02:44 44.2 °F /  6.8 °C 41.7 °F /  5.4 °C 30.14in /  1020.5hPa SSE 4.9mph /  7.9km/h 8mph /  12.9km/h 88% 0.00in /  0mm 0 W/m2
02:49 44.2 °F /  6.8 °C 41.7 °F /  5.4 °C 30.14in /  1020.5hPa SSE 4.2mph /  6.8km/h 8mph /  12.9km/h 88% 0.00in /  0mm 0 W/m2
02:54 44.2 °F /  6.8 °C 41.7 °F /  5.4 °C 30.14in /  1020.5hPa SSE 4.8mph /  7.7km/h 8mph /  12.9km/h 88% 0.00in /  0mm 0 W/m2
02:59 44.2 °F /  6.8 °C 41.6 °F /  5.3 °C 30.14in /  1020.5hPa SSE 4.6mph /  7.4km/h 8mph /  12.9km/h 88% 0.00in /  0mm 0 W/m2
03:04 44.2 °F /  6.8 °C 41.7 °F /  5.4 °C 30.15in /  1020.9hPa South 1.8mph /  2.9km/h 8mph /  12.9km/h 88% 0.00in /  0mm 0 W/m2
03:09 44.3 °F /  6.8 °C 41.8 °F /  5.4 °C 30.15in /  1020.9hPa South 5mph /  8km/h 10mph /  16.1km/h 88% 0.00in /  0mm 0 W/m2
03:14 44.4 °F /  6.9 °C 41.9 °F /  5.5 °C 30.15in /  1020.9hPa South 4.3mph /  6.9km/h 9mph /  14.5km/h 88% 0.00in /  0mm 0 W/m2
03:19 44.6 °F /  7 °C 42.1 °F /  5.6 °C 30.14in /  1020.5hPa South 5.8mph /  9.3km/h 10mph /  16.1km/h 88% 0.00in /  0mm 0 W/m2
03:24 44.5 °F /  6.9 °C 42.2 °F /  5.7 °C 30.14in /  1020.5hPa SSE 5mph /  8km/h 12mph /  19.3km/h 88.6% 0.00in /  0mm 0 W/m2
03:29 44.7 °F /  7.1 °C 42.5 °F /  5.8 °C 30.13in /  1020.2hPa SSE 4.5mph /  7.2km/h 10mph /  16.1km/h 89% 0.00in /  0mm 0 W/m2
03:34 44.8 °F /  7.1 °C 42.6 °F /  5.9 °C 30.13in /  1020.2hPa SSE 6mph /  9.7km/h 11mph /  17.7km/h 89% 0.00in /  0mm 0 W/m2
03:39 45 °F /  7.2 °C 42.8 °F /  6 °C 30.12in /  1019.9hPa SSE 4.9mph /  7.9km/h 12mph /  19.3km/h 89% 0.00in /  0mm 0 W/m2
03:44 45 °F /  7.2 °C 42.8 °F /  6 °C 30.12in /  1019.9hPa SSE 4.8mph /  7.7km/h 12mph /  19.3km/h 89% 0.00in /  0mm 0 W/m2
03:49 45 °F /  7.2 °C 42.8 °F /  6 °C 30.12in /  1019.9hPa SSE 5.8mph /  9.3km/h 12mph /  19.3km/h 89% 0.00in /  0mm 0 W/m2
03:54 45.1 °F /  7.3 °C 42.9 °F /  6.1 °C 30.12in /  1019.9hPa SSE 2.8mph /  4.5km/h 8mph /  12.9km/h 89% 0.00in /  0mm 0 W/m2
03:59 45 °F /  7.2 °C 42.8 °F /  6 °C 30.11in /  1019.5hPa SSE 2.5mph /  4km/h 7mph /  11.3km/h 89% 0.00in /  0mm 0 W/m2
04:04 45 °F /  7.2 °C 42.8 °F /  6 °C 30.12in /  1019.9hPa SE 3.6mph /  5.8km/h 8mph /  12.9km/h 89% 0.00in /  0mm 0 W/m2
04:09 45.1 °F /  7.3 °C 43 °F /  6.1 °C 30.12in /  1019.9hPa SE 5.5mph /  8.9km/h 9mph /  14.5km/h 89% 0.00in /  0mm 0 W/m2
04:14 45.3 °F /  7.4 °C 43.2 °F /  6.2 °C 30.12in /  1019.9hPa South 5.6mph /  9km/h 12mph /  19.3km/h 89.2% 0.00in /  0mm 0 W/m2
04:19 45.3 °F /  7.4 °C 43.2 °F /  6.2 °C 30.12in /  1019.9hPa South 4mph /  6.4km/h 12mph /  19.3km/h 89% 0.00in /  0mm 0 W/m2
04:24 45.3 °F /  7.4 °C 43.2 °F /  6.2 °C 30.12in /  1019.9hPa SSE 4.3mph /  6.9km/h 7mph /  11.3km/h 89% 0.00in /  0mm 0 W/m2
04:29 45.2 °F /  7.3 °C 43.1 °F /  6.2 °C 30.11in /  1019.5hPa SSE 2.4mph /  3.9km/h 7mph /  11.3km/h 89% 0.00in /  0mm 0 W/m2
04:34 45.1 °F /  7.3 °C 43 °F /  6.1 °C 30.11in /  1019.5hPa SSE 4.8mph /  7.7km/h 13mph /  20.9km/h 89% 0.00in /  0mm 0 W/m2
04:39 45.2 °F /  7.3 °C 43.1 °F /  6.2 °C 30.11in /  1019.5hPa South 5mph /  8km/h 10mph /  16.1km/h 89% 0.00in /  0mm 0 W/m2
04:44 45.3 °F /  7.4 °C 43.2 °F /  6.2 °C 30.11in /  1019.5hPa SSE 5.4mph /  8.7km/h 12mph /  19.3km/h 89% 0.00in /  0mm 0 W/m2
04:49 45.4 °F /  7.4 °C 43.1 °F /  6.2 °C 30.11in /  1019.5hPa South 2.8mph /  4.5km/h 8mph /  12.9km/h 88.6% 0.00in /  0mm 0 W/m2
04:54 45.3 °F /  7.4 °C 42.8 °F /  6 °C 30.11in /  1019.5hPa South 5.3mph /  8.5km/h 8mph /  12.9km/h 88% 0.00in /  0mm 0 W/m2
04:59 45.5 °F /  7.5 °C 43 °F /  6.1 °C 30.11in /  1019.5hPa South 4.6mph /  7.4km/h 14mph /  22.5km/h 88% 0.00in /  0mm 0 W/m2
05:04 45.5 °F /  7.5 °C 43 °F /  6.1 °C 30.11in /  1019.5hPa South 5.1mph /  8.2km/h 14mph /  22.5km/h 88% 0.00in /  0mm 0 W/m2
05:09 45.6 °F /  7.6 °C 42.9 °F /  6.1 °C 30.11in /  1019.5hPa SSE 4.9mph /  7.9km/h 10mph /  16.1km/h 87.2% 0.00in /  0mm 0 W/m2
05:14 45.7 °F /  7.6 °C 43 °F /  6.1 °C 30.11in /  1019.5hPa SSE 5.3mph /  8.5km/h 12mph /  19.3km/h 87% 0.00in /  0mm 0 W/m2
05:19 45.8 °F /  7.7 °C 42.9 °F /  6.1 °C 30.11in /  1019.5hPa SSE 5.4mph /  8.7km/h 12mph /  19.3km/h 86.4% 0.00in /  0mm 0 W/m2
05:24 45.9 °F /  7.7 °C 42.8 °F /  6 °C 30.11in /  1019.5hPa SSE 3.6mph /  5.8km/h 9mph /  14.5km/h 86% 0.00in /  0mm 0 W/m2
05:29 46 °F /  7.8 °C 43 °F /  6.1 °C 30.11in /  1019.5hPa SSE 4.2mph /  6.8km/h 11mph /  17.7km/h 86% 0.00in /  0mm 0 W/m2
05:34 46.1 °F /  7.8 °C 42.7 °F /  5.9 °C 30.12in /  1019.9hPa SSE 2.6mph /  4.2km/h 8mph /  12.9km/h 85% 0.00in /  0mm 0 W/m2
05:39 46 °F /  7.8 °C 42.6 °F /  5.9 °C 30.11in /  1019.5hPa SE 2.6mph /  4.2km/h 5mph /  8km/h 85% 0.00in /  0mm 0 W/m2
05:44 46.1 °F /  7.8 °C 42.6 °F /  5.9 °C 30.12in /  1019.9hPa SSE 5.7mph /  9.2km/h 11mph /  17.7km/h 84.2% 0.00in /  0mm 0 W/m2
05:49 46.2 °F /  7.9 °C 42.6 °F /  5.9 °C 30.12in /  1019.9hPa SE 4.1mph /  6.6km/h 9mph /  14.5km/h 84% 0.00in /  0mm 0 W/m2
05:54 46.5 °F /  8.1 °C 42.5 °F /  5.8 °C 30.12in /  1019.9hPa SE 4.2mph /  6.8km/h 9mph /  14.5km/h 83% 0.00in /  0mm 0 W/m2
05:59 46.6 °F /  8.1 °C 42.6 °F /  5.9 °C 30.11in /  1019.5hPa SSE 3.3mph /  5.3km/h 8mph /  12.9km/h 83% 0.00in /  0mm 0 W/m2
06:04 46.6 °F /  8.1 °C 42.6 °F /  5.9 °C 30.11in /  1019.5hPa SSE 4.1mph /  6.6km/h 10mph /  16.1km/h 83% 0.00in /  0mm 0 W/m2
06:09 46.7 °F /  8.2 °C 42.7 °F /  5.9 °C 30.11in /  1019.5hPa SSE 5.9mph /  9.5km/h 12mph /  19.3km/h 83% 0.00in /  0mm 0 W/m2
06:14 46.6 °F /  8.1 °C 42.6 °F /  5.9 °C 30.11in /  1019.5hPa SSE 4mph /  6.4km/h 9mph /  14.5km/h 83% 0.00in /  0mm 0 W/m2
06:19 46.6 °F /  8.1 °C 42.6 °F /  5.9 °C 30.11in /  1019.5hPa SSE 5.4mph /  8.7km/h 10mph /  16.1km/h 83% 0.00in /  0mm 0 W/m2
06:24 46.6 °F /  8.1 °C 42.6 °F /  5.9 °C 30.11in /  1019.5hPa SSE 3.3mph /  5.3km/h 10mph /  16.1km/h 83% 0.00in /  0mm 0 W/m2
06:29 46.6 °F /  8.1 °C 42.7 °F /  5.9 °C 30.11in /  1019.5hPa South 4.9mph /  7.9km/h 11mph /  17.7km/h 83.4% 0.00in /  0mm 0 W/m2
06:34 46.6 °F /  8.1 °C 42.8 °F /  6 °C 30.11in /  1019.5hPa South 5.1mph /  8.2km/h 11mph /  17.7km/h 84% 0.00in /  0mm 0 W/m2
06:39 46.6 °F /  8.1 °C 42.8 °F /  6 °C 30.11in /  1019.5hPa SSE 8.6mph /  13.8km/h 16mph /  25.7km/h 84% 0.00in /  0mm 0 W/m2
06:44 46.5 °F /  8.1 °C 42.8 °F /  6 °C 30.10in /  1019.2hPa SSE 7.6mph /  12.2km/h 12mph /  19.3km/h 84% 0.00in /  0mm 0 W/m2
06:49 46.4 °F /  8 °C 42.8 °F /  6 °C 30.10in /  1019.2hPa SSE 8.8mph /  14.2km/h 14mph /  22.5km/h 84% 0.00in /  0mm 0 W/m2
06:54 46.4 °F /  8 °C 42.8 °F /  6 °C 30.10in /  1019.2hPa SSE 6.5mph /  10.5km/h 14mph /  22.5km/h 84% 0.01in /  0.25mm 0 W/m2
06:59 46.4 °F /  8 °C 42.8 °F /  6 °C 30.10in /  1019.2hPa South 7.4mph /  11.9km/h 13mph /  20.9km/h 84% 0.01in /  0.25mm 0 W/m2
07:04 46.2 °F /  7.9 °C 42.6 °F /  5.9 °C 30.09in /  1018.8hPa SSE 7.8mph /  12.6km/h 17mph /  27.4km/h 84% 0.01in /  0.25mm 0 W/m2
07:09 46.2 °F /  7.9 °C 42.7 °F /  5.9 °C 30.09in /  1018.8hPa SE 7.2mph /  11.6km/h 15mph /  24.1km/h 84.6% 0.01in /  0.25mm 0 W/m2
07:14 46.2 °F /  7.9 °C 42.8 °F /  6 °C 30.09in /  1018.8hPa SSE 9.8mph /  15.8km/h 20mph /  32.2km/h 85% 0.01in /  0.25mm 5 W/m2
07:19 46.1 °F /  7.8 °C 42.7 °F /  5.9 °C 30.09in /  1018.8hPa SE 7.2mph /  11.6km/h 13mph /  20.9km/h 85% 0.01in /  0.25mm 11 W/m2
07:24 46 °F /  7.8 °C 42.9 °F /  6.1 °C 30.09in /  1018.8hPa SE 9.6mph /  15.4km/h 20mph /  32.2km/h 85.8% 0.01in /  0.25mm 16 W/m2
07:29 46 °F /  7.8 °C 43 °F /  6.1 °C 30.10in /  1019.2hPa SSE 6.3mph /  10.1km/h 13mph /  20.9km/h 86% 0.01in /  0.25mm 19 W/m2
07:34 46 °F /  7.8 °C 43 °F /  6.1 °C 30.10in /  1019.2hPa SSE 8.4mph /  13.5km/h 19mph /  30.6km/h 86% 0.01in /  0.25mm 23 W/m2
07:39 46 °F /  7.8 °C 43 °F /  6.1 °C 30.10in /  1019.2hPa South 8.4mph /  13.5km/h 14mph /  22.5km/h 86% 0.01in /  0.25mm 23 W/m2
07:44 46.1 °F /  7.8 °C 43.1 °F /  6.2 °C 30.11in /  1019.5hPa South 11mph /  17.7km/h 18mph /  29km/h 86% 0.01in /  0.25mm 23 W/m2
07:49 46.2 °F /  7.9 °C 43.2 °F /  6.2 °C 30.11in /  1019.5hPa South 9mph /  14.5km/h 19mph /  30.6km/h 86% 0.01in /  0.25mm 33 W/m2
07:54 46.3 °F /  7.9 °C 43.3 °F /  6.3 °C 30.12in /  1019.9hPa South 8mph /  12.9km/h 17mph /  27.4km/h 86% 0.01in /  0.25mm 35 W/m2
07:59 46.3 °F /  7.9 °C 43.3 °F /  6.3 °C 30.12in /  1019.9hPa South 7.4mph /  11.9km/h 11mph /  17.7km/h 86% 0.00in /  0mm 39 W/m2
08:04 46.4 °F /  8 °C 43.3 °F /  6.3 °C 30.12in /  1019.9hPa South 5mph /  8km/h 16mph /  25.7km/h 86% 0.00in /  0mm 42 W/m2
08:09 46.6 °F /  8.1 °C 43.3 °F /  6.3 °C 30.12in /  1019.9hPa South 6.8mph /  10.9km/h 11mph /  17.7km/h 85.4% 0.00in /  0mm 42 W/m2
08:14 46.8 °F /  8.2 °C 43.3 °F /  6.3 °C 30.13in /  1020.2hPa SSW 6.4mph /  10.3km/h 11mph /  17.7km/h 85% 0.00in /  0mm 42 W/m2
08:19 46.8 °F /  8.2 °C 43.3 °F /  6.3 °C 30.12in /  1019.9hPa South 9.2mph /  14.8km/h 14mph /  22.5km/h 85% 0.00in /  0mm 54 W/m2
08:24 46.8 °F /  8.2 °C 43.3 °F /  6.3 °C 30.12in /  1019.9hPa South 5.2mph /  8.4km/h 17mph /  27.4km/h 85% 0.00in /  0mm 67 W/m2
08:29 46.8 °F /  8.2 °C 43.3 °F /  6.3 °C 30.13in /  1020.2hPa South 7.6mph /  12.2km/h 17mph /  27.4km/h 85% 0.00in /  0mm 70 W/m2
08:34 46.9 °F /  8.3 °C 43.5 °F /  6.4 °C 30.13in /  1020.2hPa SSW 8.8mph /  14.2km/h 15mph /  24.1km/h 85% 0.00in /  0mm 67 W/m2
08:39 46.9 °F /  8.3 °C 43.5 °F /  6.4 °C 30.13in /  1020.2hPa SSW 6.3mph /  10.1km/h 13mph /  20.9km/h 85% 0.00in /  0mm 65 W/m2
08:44 47 °F /  8.3 °C 43.6 °F /  6.4 °C 30.12in /  1019.9hPa South 8.4mph /  13.5km/h 15mph /  24.1km/h 85% 0.00in /  0mm 60 W/m2
08:49 46.9 °F /  8.3 °C 43.5 °F /  6.4 °C 30.12in /  1019.9hPa SSE 6.2mph /  10km/h 15mph /  24.1km/h 85% 0.00in /  0mm 60 W/m2
08:54 47 °F /  8.3 °C 43.6 °F /  6.4 °C 30.12in /  1019.9hPa South 7.4mph /  11.9km/h 14mph /  22.5km/h 85% 0.00in /  0mm 49 W/m2
08:59 47.1 °F /  8.4 °C 43.7 °F /  6.5 °C 30.12in /  1019.9hPa South 7mph /  11.3km/h 14mph /  22.5km/h 85% 0.00in /  0mm 62 W/m2
09:04 47.1 °F /  8.4 °C 43.7 °F /  6.5 °C 30.12in /  1019.9hPa SSE 7.8mph /  12.6km/h 12mph /  19.3km/h 85% 0.00in /  0mm 74 W/m2
09:09 47.2 °F /  8.4 °C 43.8 °F /  6.6 °C 30.12in /  1019.9hPa SSE 6.8mph /  10.9km/h 16mph /  25.7km/h 85% 0.00in /  0mm 90 W/m2
09:14 47.5 °F /  8.6 °C 44.1 °F /  6.7 °C 30.13in /  1020.2hPa SSE 3.2mph /  5.1km/h 8mph /  12.9km/h 85% 0.00in /  0mm 88 W/m2
09:19 47.5 °F /  8.6 °C 44.1 °F /  6.7 °C 30.13in /  1020.2hPa South 6.8mph /  10.9km/h 20mph /  32.2km/h 85% 0.00in /  0mm 174 W/m2
09:24 47.8 °F /  8.8 °C 44.1 °F /  6.7 °C 30.13in /  1020.2hPa SSE 6.6mph /  10.6km/h 20mph /  32.2km/h 84% 0.00in /  0mm 153 W/m2
09:29 48.2 °F /  9 °C 44.4 °F /  6.9 °C 30.12in /  1019.9hPa SSE 4.9mph /  7.9km/h 9mph /  14.5km/h 84% 0.00in /  0mm 239 W/m2
09:34 48.7 °F /  9.3 °C 44.9 °F /  7.2 °C 30.12in /  1019.9hPa South 7.8mph /  12.6km/h 16mph /  25.7km/h 83.8% 0.00in /  0mm 281 W/m2
09:39 48.9 °F /  9.4 °C 44.9 °F /  7.2 °C 30.12in /  1019.9hPa South 8.8mph /  14.2km/h 15mph /  24.1km/h 83.2% 0.00in /  0mm 302 W/m2
09:44 49.5 °F /  9.7 °C 45.5 °F /  7.5 °C 30.12in /  1019.9hPa SSW 9.9mph /  15.9km/h 17mph /  27.4km/h 83.4% 0.00in /  0mm 311 W/m2
09:49 50 °F /  10 °C 45.8 °F /  7.7 °C 30.12in /  1019.9hPa SSW 5.6mph /  9km/h 18mph /  29km/h 82.8% 0.00in /  0mm 302 W/m2
09:54 50.4 °F /  10.2 °C 46.1 °F /  7.8 °C 30.12in /  1019.9hPa South 5mph /  8km/h 13mph /  20.9km/h 82% 0.00in /  0mm 267 W/m2
09:59 50.7 °F /  10.4 °C 46.1 °F /  7.8 °C 30.12in /  1019.9hPa SSE 9.4mph /  15.1km/h 16mph /  25.7km/h 81.4% 0.00in /  0mm 271 W/m2
10:04 50.7 °F /  10.4 °C 46 °F /  7.8 °C 30.12in /  1019.9hPa South 8mph /  12.9km/h 16mph /  25.7km/h 81% 0.00in /  0mm 290 W/m2
10:09 50.8 °F /  10.4 °C 46.1 °F /  7.8 °C 30.11in /  1019.5hPa South 11.4mph /  18.3km/h 17mph /  27.4km/h 81% 0.00in /  0mm 299 W/m2
10:14 50.8 °F /  10.4 °C 45.9 °F /  7.7 °C 30.11in /  1019.5hPa SSE 7.6mph /  12.2km/h 18mph /  29km/h 80.4% 0.00in /  0mm 297 W/m2
10:19 51.1 °F /  10.6 °C 46.2 °F /  7.9 °C 30.11in /  1019.5hPa South 10.3mph /  16.6km/h 21mph /  33.8km/h 80.6% 0.00in /  0mm 308 W/m2
10:24 51.3 °F /  10.7 °C 46.3 °F /  7.9 °C 30.11in /  1019.5hPa South 9.2mph /  14.8km/h 21mph /  33.8km/h 80.2% 0.00in /  0mm 297 W/m2
10:29 51.3 °F /  10.7 °C 46.4 °F /  8 °C 30.11in /  1019.5hPa SSE 8.4mph /  13.5km/h 17mph /  27.4km/h 80.4% 0.00in /  0mm 311 W/m2
10:34 51.6 °F /  10.9 °C 46.6 °F /  8.1 °C 30.11in /  1019.5hPa SSE 5.7mph /  9.2km/h 19mph /  30.6km/h 80% 0.00in /  0mm 315 W/m2
10:39 51.7 °F /  10.9 °C 46.7 °F /  8.2 °C 30.11in /  1019.5hPa SSE 8.4mph /  13.5km/h 12mph /  19.3km/h 80% 0.00in /  0mm 338 W/m2
10:44 52 °F /  11.1 °C 46.9 °F /  8.3 °C 30.10in /  1019.2hPa SSE 7.2mph /  11.6km/h 13mph /  20.9km/h 80% 0.00in /  0mm 373 W/m2
10:49 51.8 °F /  11 °C 46.8 °F /  8.2 °C 30.10in /  1019.2hPa SSE 10.2mph /  16.4km/h 17mph /  27.4km/h 80% 0.00in /  0mm 274 W/m2
10:54 52.1 °F /  11.2 °C 47 °F /  8.3 °C 30.10in /  1019.2hPa SSE 7.4mph /  11.9km/h 17mph /  27.4km/h 80% 0.00in /  0mm 302 W/m2
10:59 52.3 °F /  11.3 °C 47 °F /  8.3 °C 30.10in /  1019.2hPa South 7.8mph /  12.6km/h 14mph /  22.5km/h 79.2% 0.00in /  0mm 216 W/m2
11:04 52.5 °F /  11.4 °C 47.1 °F /  8.4 °C 30.10in /  1019.2hPa SSW 10mph /  16.1km/h 17mph /  27.4km/h 79% 0.00in /  0mm 188 W/m2
11:09 52.7 °F /  11.5 °C 47.1 °F /  8.4 °C 30.10in /  1019.2hPa South 8.8mph /  14.2km/h 20mph /  32.2km/h 78.6% 0.00in /  0mm 188 W/m2
11:14 52.5 °F /  11.4 °C 46.8 °F /  8.2 °C 30.11in /  1019.5hPa South 9mph /  14.5km/h 18mph /  29km/h 78% 0.00in /  0mm 160 W/m2
11:19 52.8 °F /  11.6 °C 47 °F /  8.3 °C 30.11in /  1019.5hPa SSW 6.4mph /  10.3km/h 19mph /  30.6km/h 78% 0.00in /  0mm 125 W/m2
11:24 52.7 °F /  11.5 °C 46.9 °F /  8.3 °C 30.11in /  1019.5hPa SSW 5.8mph /  9.3km/h 13mph /  20.9km/h 78% 0.00in /  0mm 144 W/m2
11:29 52.8 °F /  11.6 °C 47 °F /  8.3 °C 30.11in /  1019.5hPa South 8.8mph /  14.2km/h 19mph /  30.6km/h 77.8% 0.00in /  0mm 104 W/m2
11:34 53 °F /  11.7 °C 46.7 °F /  8.2 °C 30.11in /  1019.5hPa SSW 10mph /  16.1km/h 21mph /  33.8km/h 76.6% 0.00in /  0mm 188 W/m2
11:39 53.3 °F /  11.8 °C 46.7 °F /  8.2 °C 30.10in /  1019.2hPa South 12.3mph /  19.8km/h 23mph /  37km/h 75.6% 0.00in /  0mm 223 W/m2
11:44 53.6 °F /  12 °C 46.8 °F /  8.2 °C 30.10in /  1019.2hPa SSW 13mph /  20.9km/h 26mph /  41.8km/h 75% 0.00in /  0mm 274 W/m2
11:49 53.9 °F /  12.2 °C 47 °F /  8.3 °C 30.10in /  1019.2hPa SSW 14.2mph /  22.9km/h 27mph /  43.5km/h 75% 0.00in /  0mm 295 W/m2
11:54 54.1 °F /  12.3 °C 46.9 °F /  8.3 °C 30.10in /  1019.2hPa SSW 12.1mph /  19.5km/h 29mph /  46.7km/h 74% 0.00in /  0mm 501 W/m2
11:59 54.3 °F /  12.4 °C 47.1 °F /  8.4 °C 30.10in /  1019.2hPa SSW 12.6mph /  20.3km/h 29mph /  46.7km/h 74% 0.00in /  0mm 475 W/m2
12:04 54.6 °F /  12.6 °C 47.5 °F /  8.6 °C 30.10in /  1019.2hPa SSW 10.7mph /  17.2km/h 21mph /  33.8km/h 74.2% 0.00in /  0mm 475 W/m2
12:09 54.8 °F /  12.7 °C 47.7 °F /  8.7 °C 30.10in /  1019.2hPa SSW 10.6mph /  17.1km/h 19mph /  30.6km/h 74.2% 0.00in /  0mm 334 W/m2
12:14 54.9 °F /  12.7 °C 48 °F /  8.9 °C 30.10in /  1019.2hPa SW 10.2mph /  16.4km/h 21mph /  33.8km/h 75% 0.00in /  0mm 371 W/m2
12:19 54.9 °F /  12.7 °C 48 °F /  8.9 °C 30.11in /  1019.5hPa SW 10.6mph /  17.1km/h 25mph /  40.2km/h 75% 0.00in /  0mm 186 W/m2
12:24 54.5 °F /  12.5 °C 47.7 °F /  8.7 °C 30.11in /  1019.5hPa SSW 15.7mph /  25.3km/h 28mph /  45.1km/h 75% 0.00in /  0mm 165 W/m2
12:29 54.4 °F /  12.4 °C 47.9 °F /  8.8 °C 30.10in /  1019.2hPa SSW 8mph /  12.9km/h 23mph /  37km/h 75.8% 0.00in /  0mm 297 W/m2
12:34 54.8 °F /  12.7 °C 48 °F /  8.9 °C 30.10in /  1019.2hPa SSW 12.9mph /  20.8km/h 29mph /  46.7km/h 75.4% 0.00in /  0mm 336 W/m2
12:39 54.9 °F /  12.7 °C 48 °F /  8.9 °C 30.09in /  1018.8hPa SW 13.4mph /  21.6km/h 29mph /  46.7km/h 75% 0.00in /  0mm 589 W/m2
12:44 54.9 °F /  12.7 °C 48.1 °F /  8.9 °C 30.10in /  1019.2hPa SW 13.8mph /  22.2km/h 32mph /  51.5km/h 75.2% 0.00in /  0mm 589 W/m2
12:49 55 °F /  12.8 °C 48.6 °F /  9.2 °C 30.10in /  1019.2hPa South 10.4mph /  16.7km/h 23mph /  37km/h 76% 0.00in /  0mm 561 W/m2
12:54 55 °F /  12.8 °C 48.5 °F /  9.2 °C 30.10in /  1019.2hPa SSW 15.4mph /  24.8km/h 24mph /  38.6km/h 75.8% 0.00in /  0mm 443 W/m2
12:59 55 °F /  12.8 °C 48.4 °F /  9.1 °C 30.10in /  1019.2hPa SSW 10.6mph /  17.1km/h 22mph /  35.4km/h 75.6% 0.00in /  0mm 577 W/m2
13:04 55.4 °F /  13 °C 48.5 °F /  9.2 °C 30.10in /  1019.2hPa SW 13.6mph /  21.9km/h 29mph /  46.7km/h 74.8% 0.00in /  0mm 563 W/m2
13:09 55.7 °F /  13.2 °C 48.4 °F /  9.1 °C 30.10in /  1019.2hPa SW 12.7mph /  20.4km/h 23mph /  37km/h 74% 0.00in /  0mm 557 W/m2
13:14 55.7 °F /  13.2 °C 48.4 °F /  9.1 °C 30.11in /  1019.5hPa SSW 16.6mph /  26.7km/h 27mph /  43.5km/h 74% 0.00in /  0mm 515 W/m2
13:19 55.8 °F /  13.2 °C 48.2 °F /  9 °C 30.10in /  1019.2hPa SSW 14.4mph /  23.2km/h 26mph /  41.8km/h 73.4% 0.00in /  0mm 527 W/m2
13:24 56 °F /  13.3 °C 48.4 °F /  9.1 °C 30.10in /  1019.2hPa SW 12.8mph /  20.6km/h 25mph /  40.2km/h 73.4% 0.00in /  0mm 517 W/m2
13:29 56 °F /  13.3 °C 48.3 °F /  9.1 °C 30.10in /  1019.2hPa SW 13mph /  20.9km/h 23mph /  37km/h 73% 0.00in /  0mm 533 W/m2
13:34 56.3 °F /  13.5 °C 48.4 °F /  9.1 °C 30.10in /  1019.2hPa SW 11.2mph /  18km/h 25mph /  40.2km/h 72.6% 0.00in /  0mm 529 W/m2
13:39 55.9 °F /  13.3 °C 47.9 °F /  8.8 °C 30.11in /  1019.5hPa SW 17.4mph /  28km/h 26mph /  41.8km/h 72.2% 0.00in /  0mm 483 W/m2
13:44 55.9 °F /  13.3 °C 47.9 °F /  8.8 °C 30.10in /  1019.2hPa SW 23mph /  37km/h 45mph /  72.4km/h 72.4% 0.00in /  0mm 485 W/m2
13:49 55.8 °F /  13.2 °C 47.9 °F /  8.8 °C 30.11in /  1019.5hPa SW 20.3mph /  32.7km/h 33mph /  53.1km/h 72.6% 0.00in /  0mm 476 W/m2
13:54 55.9 °F /  13.3 °C 48.2 °F /  9 °C 30.10in /  1019.2hPa SW 14.8mph /  23.8km/h 37mph /  59.5km/h 73% 0.00in /  0mm 462 W/m2
13:59 56 °F /  13.3 °C 48 °F /  8.9 °C 30.09in /  1018.8hPa SW 12mph /  19.3km/h 28mph /  45.1km/h 72.4% 0.00in /  0mm 439 W/m2
14:04 55.9 °F /  13.3 °C 47.9 °F /  8.8 °C 30.09in /  1018.8hPa SSW 13.6mph /  21.9km/h 34mph /  54.7km/h 72.2% 0.00in /  0mm 434 W/m2
14:09 56.1 °F /  13.4 °C 48 °F /  8.9 °C 30.09in /  1018.8hPa SW 15.2mph /  24.5km/h 30mph /  48.3km/h 72% 0.00in /  0mm 422 W/m2
14:14 55.9 °F /  13.3 °C 47.8 °F /  8.8 °C 30.09in /  1018.8hPa SW 17.8mph /  28.6km/h 31mph /  49.9km/h 72% 0.00in /  0mm 425 W/m2
14:19 56 °F /  13.3 °C 47.9 °F /  8.8 °C 30.09in /  1018.8hPa SSW 15.3mph /  24.6km/h 36mph /  57.9km/h 72% 0.00in /  0mm 459 W/m2
14:24 56 °F /  13.3 °C 47.9 °F /  8.8 °C 30.09in /  1018.8hPa SW 16.8mph /  27km/h 35mph /  56.3km/h 71.8% 0.00in /  0mm 425 W/m2
14:29 55.9 °F /  13.3 °C 47.8 °F /  8.8 °C 30.09in /  1018.8hPa SW 12.8mph /  20.6km/h 28mph /  45.1km/h 72% 0.00in /  0mm 415 W/m2
14:34 55.8 °F /  13.2 °C 47.8 °F /  8.8 °C 30.09in /  1018.8hPa SW 18.2mph /  29.3km/h 31mph /  49.9km/h 72.4% 0.00in /  0mm 399 W/m2
14:39 55.7 °F /  13.2 °C 48 °F /  8.9 °C 30.09in /  1018.8hPa SSW 16.9mph /  27.2km/h 34mph /  54.7km/h 73% 0.00in /  0mm 436 W/m2
14:44 55.4 °F /  13 °C 48 °F /  8.9 °C 30.09in /  1018.8hPa SSW 13mph /  20.9km/h 37mph /  59.5km/h 73.6% 0.00in /  0mm 220 W/m2
14:49 55.2 °F /  12.9 °C 48 °F /  8.9 °C 30.10in /  1019.2hPa SSW 14.2mph /  22.9km/h 27mph /  43.5km/h 74% 0.00in /  0mm 160 W/m2
14:54 55 °F /  12.8 °C 47.8 °F /  8.8 °C 30.09in /  1018.8hPa SSW 14.8mph /  23.8km/h 30mph /  48.3km/h 74% 0.00in /  0mm 142 W/m2
14:59 55 °F /  12.8 °C 47.7 °F /  8.7 °C 30.09in /  1018.8hPa SW 11.9mph /  19.2km/h 33mph /  53.1km/h 73.8% 0.00in /  0mm 151 W/m2
15:04 55.1 °F /  12.8 °C 47.6 °F /  8.7 °C 30.09in /  1018.8hPa SSW 18.6mph /  29.9km/h 33mph /  53.1km/h 73% 0.00in /  0mm 225 W/m2
15:09 55.4 °F /  13 °C 47.8 °F /  8.8 °C 30.09in /  1018.8hPa South 9.6mph /  15.4km/h 29mph /  46.7km/h 73% 0.00in /  0mm 188 W/m2
15:14 55.3 °F /  12.9 °C 47.7 °F /  8.7 °C 30.10in /  1019.2hPa SSW 13.6mph /  21.9km/h 30mph /  48.3km/h 72.8% 0.00in /  0mm 83 W/m2
15:19 55.3 °F /  12.9 °C 47.6 °F /  8.7 °C 30.10in /  1019.2hPa SSW 11.6mph /  18.7km/h 24mph /  38.6km/h 72.4% 0.00in /  0mm 120 W/m2
15:24 55.4 °F /  13 °C 47.6 °F /  8.7 °C 30.11in /  1019.5hPa SW 13mph /  20.9km/h 26mph /  41.8km/h 72.2% 0.00in /  0mm 149 W/m2
15:29 55.4 °F /  13 °C 47.8 °F /  8.8 °C 30.11in /  1019.5hPa SSW 12.6mph /  20.3km/h 20mph /  32.2km/h 73% 0.00in /  0mm 79 W/m2
15:34 55.2 °F /  12.9 °C 47.7 °F /  8.7 °C 30.11in /  1019.5hPa SSW 14mph /  22.5km/h 27mph /  43.5km/h 73% 0.00in /  0mm 40 W/m2
15:39 55.2 °F /  12.9 °C 47.7 °F /  8.7 °C 30.10in /  1019.2hPa SSW 11mph /  17.7km/h 23mph /  37km/h 73% 0.00in /  0mm 49 W/m2
15:44 55.2 °F /  12.9 °C 47.7 °F /  8.7 °C 30.10in /  1019.2hPa SSW 10.4mph /  16.7km/h 23mph /  37km/h 73% 0.00in /  0mm 60 W/m2
15:49 55.2 °F /  12.9 °C 47.7 °F /  8.7 °C 30.11in /  1019.5hPa SSW 14.3mph /  23km/h 19mph /  30.6km/h 73% 0.00in /  0mm 56 W/m2
15:54 55.2 °F /  12.9 °C 48 °F /  8.9 °C 30.10in /  1019.2hPa South 16mph /  25.7km/h 22mph /  35.4km/h 74% 0.00in /  0mm 58 W/m2
15:59 55.2 °F /  12.9 °C 47.9 °F /  8.8 °C 30.10in /  1019.2hPa SSW 11.8mph /  19km/h 24mph /  38.6km/h 73.6% 0.00in /  0mm 42 W/m2
16:04 55.2 °F /  12.9 °C 48 °F /  8.9 °C 30.11in /  1019.5hPa South 9.8mph /  15.8km/h 24mph /  38.6km/h 74% 0.00in /  0mm 30 W/m2
16:09 55.1 °F /  12.8 °C 47.9 °F /  8.8 °C 30.11in /  1019.5hPa SSW 8.3mph /  13.4km/h 19mph /  30.6km/h 74% 0.00in /  0mm 26 W/m2
16:14 55 °F /  12.8 °C 47.7 °F /  8.7 °C 30.10in /  1019.2hPa South 11.1mph /  17.9km/h 26mph /  41.8km/h 73.8% 0.00in /  0mm 26 W/m2
16:19 55 °F /  12.8 °C 47.8 °F /  8.8 °C 30.10in /  1019.2hPa South 11mph /  17.7km/h 20mph /  32.2km/h 74% 0.00in /  0mm 19 W/m2
16:24 55 °F /  12.8 °C 47.7 °F /  8.7 °C 30.10in /  1019.2hPa SSW 11.4mph /  18.3km/h 20mph /  32.2km/h 73.8% 0.00in /  0mm 25 W/m2
16:29 55 °F /  12.8 °C 47.5 °F /  8.6 °C 30.09in /  1018.8hPa SSW 9.1mph /  14.6km/h 19mph /  30.6km/h 73% 0.00in /  0mm 25 W/m2
16:34 55 °F /  12.8 °C 47.5 °F /  8.6 °C 30.09in /  1018.8hPa SSW 10.8mph /  17.4km/h 22mph /  35.4km/h 73% 0.00in /  0mm 19 W/m2
16:39 55.2 °F /  12.9 °C 47.7 °F /  8.7 °C 30.10in /  1019.2hPa South 11mph /  17.7km/h 24mph /  38.6km/h 73% 0.00in /  0mm 19 W/m2
16:44 55.2 °F /  12.9 °C 47.7 °F /  8.7 °C 30.09in /  1018.8hPa SSW 12.6mph /  20.3km/h 23mph /  37km/h 73% 0.00in /  0mm 14 W/m2
16:49 55.4 °F /  13 °C 47.6 °F /  8.7 °C 30.09in /  1018.8hPa South 12.6mph /  20.3km/h 29mph /  46.7km/h 72.6% 0.00in /  0mm 12 W/m2
16:54 55.6 °F /  13.1 °C 47.5 °F /  8.6 °C 30.09in /  1018.8hPa SSW 10.6mph /  17.1km/h 20mph /  32.2km/h 72% 0.00in /  0mm 16 W/m2
16:59 55.6 °F /  13.1 °C 47.5 °F /  8.6 °C 30.09in /  1018.8hPa SSW 12mph /  19.3km/h 21mph /  33.8km/h 72% 0.00in /  0mm 19 W/m2
17:04 55.6 °F /  13.1 °C 47.5 °F /  8.6 °C 30.09in /  1018.8hPa South 10.6mph /  17.1km/h 22mph /  35.4km/h 72% 0.00in /  0mm 16 W/m2
17:09 55.6 °F /  13.1 °C 47.5 °F /  8.6 °C 30.09in /  1018.8hPa SSW 10.4mph /  16.7km/h 20mph /  32.2km/h 72% 0.00in /  0mm 12 W/m2
17:14 55.6 °F /  13.1 °C 47.5 °F /  8.6 °C 30.10in /  1019.2hPa SSW 9.1mph /  14.6km/h 23mph /  37km/h 72% 0.00in /  0mm 11 W/m2
17:19 55.7 °F /  13.2 °C 47.6 °F /  8.7 °C 30.10in /  1019.2hPa SSW 11mph /  17.7km/h 23mph /  37km/h 72% 0.00in /  0mm 11 W/m2
17:24 55.6 °F /  13.1 °C 47.5 °F /  8.6 °C 30.10in /  1019.2hPa South 9.3mph /  15km/h 20mph /  32.2km/h 72% 0.00in /  0mm 7 W/m2
17:29 55.6 °F /  13.1 °C 47.6 °F /  8.7 °C 30.10in /  1019.2hPa SSW 9.3mph /  15km/h 22mph /  35.4km/h 72.2% 0.00in /  0mm 5 W/m2
17:34 55.4 °F /  13 °C 47.8 °F /  8.8 °C 30.10in /  1019.2hPa SSW 10mph /  16.1km/h 22mph /  35.4km/h 73% 0.00in /  0mm 5 W/m2
17:39 55.3 °F /  12.9 °C 47.7 °F /  8.7 °C 30.10in /  1019.2hPa SSW 10.2mph /  16.4km/h 20mph /  32.2km/h 73% 0.00in /  0mm 0 W/m2
17:44 55.1 °F /  12.8 °C 47.8 °F /  8.8 °C 30.10in /  1019.2hPa SSW 9.6mph /  15.4km/h 18mph /  29km/h 73.8% 0.00in /  0mm 0 W/m2
17:49 55.1 °F /  12.8 °C 47.9 °F /  8.8 °C 30.10in /  1019.2hPa South 9.2mph /  14.8km/h 20mph /  32.2km/h 74% 0.00in /  0mm 0 W/m2
17:54 55 °F /  12.8 °C 48.1 °F /  8.9 °C 30.10in /  1019.2hPa SSW 9.6mph /  15.4km/h 25mph /  40.2km/h 74.8% 0.00in /  0mm 0 W/m2
17:59 55 °F /  12.8 °C 48.2 °F /  9 °C 30.10in /  1019.2hPa SSW 12.2mph /  19.6km/h 26mph /  41.8km/h 75% 0.00in /  0mm 0 W/m2
18:04 55.1 °F /  12.8 °C 48.4 °F /  9.1 °C 30.10in /  1019.2hPa South 11.6mph /  18.7km/h 24mph /  38.6km/h 75.2% 0.00in /  0mm 0 W/m2
18:09 55 °F /  12.8 °C 48.5 °F /  9.2 °C 30.09in /  1018.8hPa South 11.4mph /  18.3km/h 24mph /  38.6km/h 76% 0.00in /  0mm 0 W/m2
18:14 55 °F /  12.8 °C 48.6 °F /  9.2 °C 30.09in /  1018.8hPa South 14.2mph /  22.9km/h 26mph /  41.8km/h 76% 0.00in /  0mm 0 W/m2
18:19 55 °F /  12.8 °C 48.6 °F /  9.2 °C 30.09in /  1018.8hPa South 10mph /  16.1km/h 22mph /  35.4km/h 76% 0.00in /  0mm 0 W/m2
18:24 55.1 °F /  12.8 °C 48.6 °F /  9.2 °C 30.10in /  1019.2hPa South 14.5mph /  23.3km/h 22mph /  35.4km/h 76% 0.00in /  0mm 0 W/m2
18:29 55.2 °F /  12.9 °C 48.6 °F /  9.2 °C 30.10in /  1019.2hPa SSW 11.6mph /  18.7km/h 23mph /  37km/h 75.6% 0.00in /  0mm 0 W/m2
18:34 55.2 °F /  12.9 °C 48.4 °F /  9.1 °C 30.10in /  1019.2hPa SW 7.5mph /  12.1km/h 23mph /  37km/h 75% 0.00in /  0mm 0 W/m2
18:39 55.5 °F /  13.1 °C 48.5 °F /  9.2 °C 30.10in /  1019.2hPa SSW 10mph /  16.1km/h 23mph /  37km/h 74.4% 0.00in /  0mm 0 W/m2
18:44 55.6 °F /  13.1 °C 48.4 °F /  9.1 °C 30.10in /  1019.2hPa SSW 11.8mph /  19km/h 21mph /  33.8km/h 74% 0.00in /  0mm 0 W/m2
18:49 55.8 °F /  13.2 °C 48.4 °F /  9.1 °C 30.11in /  1019.5hPa SSW 10.7mph /  17.2km/h 25mph /  40.2km/h 74% 0.00in /  0mm 0 W/m2
18:54 55.8 °F /  13.2 °C 48.1 °F /  8.9 °C 30.11in /  1019.5hPa SSW 13.2mph /  21.2km/h 25mph /  40.2km/h 73.2% 0.00in /  0mm 0 W/m2
18:59 55.8 °F /  13.2 °C 48 °F /  8.9 °C 30.11in /  1019.5hPa SSW 13mph /  20.9km/h 34mph /  54.7km/h 73% 0.00in /  0mm 0 W/m2
19:04 55.8 °F /  13.2 °C 48 °F /  8.9 °C 30.11in /  1019.5hPa SSW 13.2mph /  21.2km/h 35mph /  56.3km/h 73% 0.00in /  0mm 0 W/m2
19:09 55.8 °F /  13.2 °C 48.4 °F /  9.1 °C 30.11in /  1019.5hPa South 14.2mph /  22.9km/h 23mph /  37km/h 74% 0.00in /  0mm 0 W/m2
19:14 55.7 °F /  13.2 °C 48.4 °F /  9.1 °C 30.11in /  1019.5hPa SSW 11mph /  17.7km/h 24mph /  38.6km/h 74% 0.00in /  0mm 0 W/m2
19:19 55.6 °F /  13.1 °C 48.4 °F /  9.1 °C 30.11in /  1019.5hPa South 13.1mph /  21.1km/h 28mph /  45.1km/h 74% 0.00in /  0mm 0 W/m2
19:24 55.4 °F /  13 °C 48.6 °F /  9.2 °C 30.11in /  1019.5hPa SSW 11mph /  17.7km/h 22mph /  35.4km/h 75% 0.00in /  0mm 0 W/m2
19:29 55.3 °F /  12.9 °C 48.5 °F /  9.2 °C 30.11in /  1019.5hPa South 10.6mph /  17.1km/h 22mph /  35.4km/h 75% 0.00in /  0mm 0 W/m2
19:34 55.2 °F /  12.9 °C 48.4 °F /  9.1 °C 30.11in /  1019.5hPa SSW 16.6mph /  26.7km/h 27mph /  43.5km/h 75% 0.00in /  0mm 0 W/m2
19:39 55.4 °F /  13 °C 48.6 °F /  9.2 °C 30.11in /  1019.5hPa SSW 14.6mph /  23.5km/h 28mph /  45.1km/h 75% 0.00in /  0mm 0 W/m2
19:44 55.4 °F /  13 °C 48.8 °F /  9.3 °C 30.12in /  1019.9hPa SSW 12.4mph /  20km/h 19mph /  30.6km/h 75.8% 0.00in /  0mm 0 W/m2
19:49 55.3 °F /  12.9 °C 48.8 °F /  9.3 °C 30.12in /  1019.9hPa SSW 11.8mph /  19km/h 28mph /  45.1km/h 76% 0.00in /  0mm 0 W/m2
19:54 55.3 °F /  12.9 °C 48.8 °F /  9.3 °C 30.12in /  1019.9hPa SSW 10.4mph /  16.7km/h 28mph /  45.1km/h 76% 0.00in /  0mm 0 W/m2
19:59 55.2 °F /  12.9 °C 48.7 °F /  9.3 °C 30.13in /  1020.2hPa SSW 15.2mph /  24.5km/h 24mph /  38.6km/h 76% 0.00in /  0mm 0 W/m2
20:04 55.2 °F /  12.9 °C 48.7 °F /  9.3 °C 30.13in /  1020.2hPa SSW 8.7mph /  14km/h 21mph /  33.8km/h 76% 0.00in /  0mm 0 W/m2
20:09 55.1 °F /  12.8 °C 48.7 °F /  9.3 °C 30.13in /  1020.2hPa SW 13.3mph /  21.4km/h 25mph /  40.2km/h 76% 0.00in /  0mm 0 W/m2
20:14 55 °F /  12.8 °C 48.6 °F /  9.2 °C 30.13in /  1020.2hPa SW 10mph /  16.1km/h 25mph /  40.2km/h 76% 0.00in /  0mm 0 W/m2
20:19 54.9 °F /  12.7 °C 48.5 °F /  9.2 °C 30.13in /  1020.2hPa South 14.4mph /  23.2km/h 24mph /  38.6km/h 76% 0.00in /  0mm 0 W/m2
20:24 54.9 °F /  12.7 °C 48.5 °F /  9.2 °C 30.13in /  1020.2hPa SSW 11.3mph /  18.2km/h 23mph /  37km/h 76.4% 0.00in /  0mm 0 W/m2
20:29 54.9 °F /  12.7 °C 48.7 °F /  9.3 °C 30.13in /  1020.2hPa SW 14.4mph /  23.2km/h 23mph /  37km/h 77% 0.00in /  0mm 0 W/m2
20:34 54.8 °F /  12.7 °C 48.7 °F /  9.3 °C 30.13in /  1020.2hPa SW 10.8mph /  17.4km/h 26mph /  41.8km/h 77% 0.00in /  0mm 0 W/m2
20:39 54.8 °F /  12.7 °C 48.8 °F /  9.3 °C 30.13in /  1020.2hPa SSW 10mph /  16.1km/h 22mph /  35.4km/h 77.6% 0.00in /  0mm 0 W/m2
20:44 54.7 °F /  12.6 °C 48.8 °F /  9.3 °C 30.12in /  1019.9hPa SW 9.6mph /  15.4km/h 24mph /  38.6km/h 77.8% 0.00in /  0mm 0 W/m2
20:49 54.7 °F /  12.6 °C 48.9 °F /  9.4 °C 30.13in /  1020.2hPa SW 12mph /  19.3km/h 23mph /  37km/h 78% 0.00in /  0mm 0 W/m2
20:54 54.5 °F /  12.5 °C 48.7 °F /  9.3 °C 30.12in /  1019.9hPa SW 10mph /  16.1km/h 22mph /  35.4km/h 78% 0.00in /  0mm 0 W/m2
20:59 54.6 °F /  12.6 °C 48.9 °F /  9.4 °C 30.13in /  1020.2hPa SSW 10.8mph /  17.4km/h 29mph /  46.7km/h 78.8% 0.00in /  0mm 0 W/m2
21:04 54.7 °F /  12.6 °C 49.1 °F /  9.5 °C 30.13in /  1020.2hPa South 14.9mph /  24km/h 29mph /  46.7km/h 79% 0.00in /  0mm 0 W/m2
21:09 54.6 °F /  12.6 °C 49 °F /  9.4 °C 30.13in /  1020.2hPa SSW 13mph /  20.9km/h 25mph /  40.2km/h 79% 0.00in /  0mm 0 W/m2
21:14 54.4 °F /  12.4 °C 48.8 °F /  9.3 °C 30.13in /  1020.2hPa SW 8.6mph /  13.8km/h 25mph /  40.2km/h 79% 0.00in /  0mm 0 W/m2
21:19 54.3 °F /  12.4 °C 48.7 °F /  9.3 °C 30.13in /  1020.2hPa SW 11.5mph /  18.5km/h 25mph /  40.2km/h 79% 0.00in /  0mm 0 W/m2
21:24 54.3 °F /  12.4 °C 48.7 °F /  9.3 °C 30.13in /  1020.2hPa SSW 10.8mph /  17.4km/h 27mph /  43.5km/h 79% 0.00in /  0mm 0 W/m2
21:29 54.2 °F /  12.3 °C 48.8 °F /  9.3 °C 30.12in /  1019.9hPa SW 9.6mph /  15.4km/h 25mph /  40.2km/h 79.4% 0.00in /  0mm 0 W/m2
21:34 54.1 °F /  12.3 °C 48.9 °F /  9.4 °C 30.12in /  1019.9hPa SSW 9.4mph /  15.1km/h 17mph /  27.4km/h 80% 0.00in /  0mm 0 W/m2
21:39 54.1 °F /  12.3 °C 48.8 °F /  9.3 °C 30.11in /  1019.5hPa SW 14.8mph /  23.8km/h 25mph /  40.2km/h 80% 0.00in /  0mm 0 W/m2
21:44 54.1 °F /  12.3 °C 48.8 °F /  9.3 °C 30.12in /  1019.9hPa SSW 9.6mph /  15.4km/h 30mph /  48.3km/h 80% 0.00in /  0mm 0 W/m2
21:49 54.1 °F /  12.3 °C 48.9 °F /  9.4 °C 30.11in /  1019.5hPa South 13.4mph /  21.6km/h 34mph /  54.7km/h 80% 0.00in /  0mm 0 W/m2
21:54 54.1 °F /  12.3 °C 48.9 °F /  9.4 °C 30.11in /  1019.5hPa SSW 12.2mph /  19.6km/h 34mph /  54.7km/h 80% 0.00in /  0mm 0 W/m2
21:59 54.1 °F /  12.3 °C 48.9 °F /  9.4 °C 30.11in /  1019.5hPa South 12.2mph /  19.6km/h 21mph /  33.8km/h 80% 0.00in /  0mm 0 W/m2
22:04 54.1 °F /  12.3 °C 49 °F /  9.4 °C 30.11in /  1019.5hPa SSW 11.4mph /  18.3km/h 26mph /  41.8km/h 80.4% 0.00in /  0mm 0 W/m2
22:09 54.1 °F /  12.3 °C 48.9 °F /  9.4 °C 30.11in /  1019.5hPa SSW 14.8mph /  23.8km/h 22mph /  35.4km/h 80% 0.00in /  0mm 0 W/m2
22:14 54.1 °F /  12.3 °C 48.9 °F /  9.4 °C 30.10in /  1019.2hPa South 14.2mph /  22.9km/h 25mph /  40.2km/h 80% 0.00in /  0mm 0 W/m2
22:19 54.1 °F /  12.3 °C 49.3 °F /  9.6 °C 30.11in /  1019.5hPa SSW 12.6mph /  20.3km/h 31mph /  49.9km/h 81% 0.00in /  0mm 0 W/m2
22:24 54.1 °F /  12.3 °C 49.3 °F /  9.6 °C 30.10in /  1019.2hPa SSW 16.4mph /  26.4km/h 30mph /  48.3km/h 81% 0.00in /  0mm 0 W/m2
22:29 54.1 °F /  12.3 °C 49.3 °F /  9.6 °C 30.11in /  1019.5hPa SSW 14.2mph /  22.9km/h 28mph /  45.1km/h 81% 0.00in /  0mm 0 W/m2
22:34 54 °F /  12.2 °C 49.2 °F /  9.6 °C 30.11in /  1019.5hPa South 13.3mph /  21.4km/h 29mph /  46.7km/h 81% 0.00in /  0mm 0 W/m2
22:39 54 °F /  12.2 °C 49.1 °F /  9.5 °C 30.11in /  1019.5hPa South 13.6mph /  21.9km/h 22mph /  35.4km/h 81% 0.00in /  0mm 0 W/m2
22:44 54 °F /  12.2 °C 49.3 °F /  9.6 °C 30.11in /  1019.5hPa SSW 12.9mph /  20.8km/h 22mph /  35.4km/h 81.4% 0.00in /  0mm 0 W/m2
22:49 54 °F /  12.2 °C 49.5 °F /  9.7 °C 30.11in /  1019.5hPa SW 10.2mph /  16.4km/h 29mph /  46.7km/h 82% 0.00in /  0mm 0 W/m2
22:54 54 °F /  12.2 °C 49.5 °F /  9.7 °C 30.11in /  1019.5hPa SSW 14mph /  22.5km/h 28mph /  45.1km/h 82% 0.00in /  0mm 0 W/m2
22:59 54 °F /  12.2 °C 49.5 °F /  9.7 °C 30.11in /  1019.5hPa South 13mph /  20.9km/h 31mph /  49.9km/h 82% 0.00in /  0mm 0 W/m2
23:04 54 °F /  12.2 °C 49.5 °F /  9.7 °C 30.11in /  1019.5hPa SSW 11.1mph /  17.9km/h 31mph /  49.9km/h 82% 0.00in /  0mm 0 W/m2
23:09 54 °F /  12.2 °C 49.5 °F /  9.7 °C 30.10in /  1019.2hPa SSW 13.1mph /  21.1km/h 30mph /  48.3km/h 82% 0.00in /  0mm 0 W/m2
23:14 54 °F /  12.2 °C 49.7 °F /  9.8 °C 30.11in /  1019.5hPa SSW 12.6mph /  20.3km/h 28mph /  45.1km/h 82.8% 0.00in /  0mm 0 W/m2
23:19 54 °F /  12.2 °C 49.8 °F /  9.9 °C 30.11in /  1019.5hPa South 13.6mph /  21.9km/h 27mph /  43.5km/h 83% 0.00in /  0mm 0 W/m2
23:24 53.8 °F /  12.1 °C 49.6 °F /  9.8 °C 30.11in /  1019.5hPa SSW 11.2mph /  18km/h 24mph /  38.6km/h 83% 0.00in /  0mm 0 W/m2
23:29 53.9 °F /  12.2 °C 49.7 °F /  9.8 °C 30.11in /  1019.5hPa SW 15.6mph /  25.1km/h 26mph /  41.8km/h 83% 0.00in /  0mm 0 W/m2
23:34 53.9 °F /  12.2 °C 49.7 °F /  9.8 °C 30.11in /  1019.5hPa SSW 14.4mph /  23.2km/h 26mph /  41.8km/h 83% 0.00in /  0mm 0 W/m2
23:39 53.8 °F /  12.1 °C 49.6 °F /  9.8 °C 30.12in /  1019.9hPa SSW 16.4mph /  26.4km/h 27mph /  43.5km/h 83% 0.00in /  0mm 0 W/m2
23:44 53.8 °F /  12.1 °C 49.6 °F /  9.8 °C 30.12in /  1019.9hPa SW 11.6mph /  18.7km/h 23mph /  37km/h 83% 0.00in /  0mm 0 W/m2
23:49 53.8 °F /  12.1 °C 49.8 °F /  9.9 °C 30.12in /  1019.9hPa SSW 11.6mph /  18.7km/h 27mph /  43.5km/h 83.4% 0.00in /  0mm 0 W/m2
23:54 53.5 °F /  11.9 °C 49.8 °F /  9.9 °C 30.12in /  1019.9hPa SSW 14.6mph /  23.5km/h 25mph /  40.2km/h 84.2% 0.00in /  0mm 0 W/m2
23:59 53.1 °F /  11.7 °C 49.8 °F /  9.9 °C 30.12in /  1019.9hPa SSW 9.1mph /  14.6km/h 22mph /  35.4km/h 85.6% 0.00in /  0mm 0 W/m2
Bath Spa Weather
Compliments of Weather Underground - 2 mb